Time;durP1;ratioP1;P1;durP2;ratioP2;P2;SDS_P1;SDS_P2;PMS_P1;PMS_P2;Temp;Humidity;BMP_temperature;BMP_pressure;BME280_temperature;BME280_humidity;BME280_pressure;Samples;Min_cycle;Max_cycle;Signal;HPM_P1;HPM_P2
2021/12/30 00:01:31;;;;;;;5.25;4.03;;;;;;;-4.00;98.05;100173.28;5014911;28;20400;-70
2021/12/30 00:03:58;;;;;;;4.85;3.20;;;;;;;-3.99;97.39;100161.44;5014978;28;20076;-69
2021/12/30 00:06:25;;;;;;;7.20;3.35;;;;;;;-3.96;96.99;100167.34;5014972;28;20133;-69
2021/12/30 00:08:54;;;;;;;4.18;3.45;;;;;;;-3.95;97.07;100166.50;5014876;28;20057;-70
2021/12/30 00:11:23;;;;;;;4.72;3.15;;;;;;;-3.95;96.86;100168.19;5014949;28;20042;-69
2021/12/30 00:13:50;;;;;;;4.03;3.60;;;;;;;-3.93;96.48;100161.41;5014654;28;20404;-67
2021/12/30 00:16:18;;;;;;;5.85;3.47;;;;;;;-3.95;96.22;100171.56;5014958;28;20068;-70
2021/12/30 00:18:46;;;;;;;6.22;3.28;;;;;;;-3.95;95.69;100169.03;5015137;28;20049;-70
2021/12/30 00:21:12;;;;;;;4.20;2.58;;;;;;;-3.92;96.08;100162.25;5014753;28;20492;-70
2021/12/30 00:23:40;;;;;;;6.07;2.67;;;;;;;-3.90;95.87;100155.44;5014934;28;20042;-69
2021/12/30 00:26:07;;;;;;;3.42;2.90;;;;;;;-3.91;95.82;100153.75;5014540;28;20053;-69
2021/12/30 00:28:36;;;;;;;3.25;2.30;;;;;;;-3.92;95.83;100157.16;5014788;28;20053;-69
2021/12/30 00:31:03;;;;;;;6.93;2.90;;;;;;;-3.92;95.40;100158.00;5014373;28;20057;-69
2021/12/30 00:33:32;;;;;;;6.32;3.42;;;;;;;-3.93;95.07;100161.41;5014318;28;20053;-70
2021/12/30 00:35:59;;;;;;;9.88;3.83;;;;;;;-3.93;94.74;100171.59;5014000;28;20050;-71
2021/12/30 00:38:26;;;;;;;3.10;2.53;;;;;;;-3.93;94.63;100171.59;5014536;28;20049;-69
2021/12/30 00:40:53;;;;;;;5.05;3.42;;;;;;;-3.93;94.21;100171.59;5014269;28;20050;-69
2021/12/30 00:43:20;;;;;;;4.22;2.88;;;;;;;-3.91;94.48;100163.94;5014307;28;20046;-69
2021/12/30 00:45:48;;;;;;;2.95;2.38;;;;;;;-3.91;94.16;100164.78;5014459;28;20054;-70
2021/12/30 00:48:15;;;;;;;5.13;2.95;;;;;;;-3.91;93.96;100169.00;5013182;28;20050;-69
2021/12/30 00:50:43;;;;;;;3.78;2.53;;;;;;;-3.90;94.01;100165.59;5014548;28;20050;-70
2021/12/30 00:53:10;;;;;;;9.65;2.35;;;;;;;-3.94;93.92;100168.16;5013927;28;20049;-70
2021/12/30 00:55:38;;;;;;;2.83;2.15;;;;;;;-3.92;93.32;100167.34;5013887;28;20046;-70
2021/12/30 00:58:06;;;;;;;2.38;2.08;;;;;;;-3.94;93.77;100160.53;5014083;28;20104;-69
2021/12/30 01:00:34;;;;;;;5.80;2.85;;;;;;;-3.95;93.42;100156.31;5014048;28;20058;-68
2021/12/30 01:03:02;;;;;;;5.15;2.42;;;;;;;-3.94;93.40;100158.00;5013864;28;20056;-69
2021/12/30 01:05:29;;;;;;;3.70;2.83;;;;;;;-3.92;93.53;100154.63;5013873;28;20053;-69
2021/12/30 01:07:57;;;;;;;6.47;3.63;;;;;;;-3.92;93.45;100160.53;5013800;28;20053;-69
2021/12/30 01:10:24;;;;;;;;;;;;;;;-3.92;93.16;100160.53;5014360;28;20045;-67
2021/12/30 01:12:51;;;;;;;4.85;3.38;;;;;;;-3.94;93.15;100154.63;5013891;28;19922;-69
2021/12/30 01:15:21;;;;;;;2.42;2.22;;;;;;;-3.93;92.80;100156.34;5013700;28;20057;-69
2021/12/30 01:17:53;;;;;;;5.35;3.03;;;;;;;-3.91;92.78;100158.84;5013903;28;20053;-69
2021/12/30 01:20:22;;;;;;;4.28;3.05;;;;;;;-3.93;92.99;100161.41;5013966;28;20050;-66
2021/12/30 01:22:52;;;;;;;3.22;2.72;;;;;;;-3.92;93.03;100157.16;5013747;28;20054;-70
2021/12/30 01:25:20;;;;;;;2.63;2.17;;;;;;;-3.91;92.77;100161.38;5013413;28;20489;-70
2021/12/30 01:27:47;;;;;;;2.60;1.88;;;;;;;-3.92;92.92;100162.25;5013440;28;20485;-69
2021/12/30 01:30:15;;;;;;;;;;;;;;;-3.96;93.07;100159.72;5013814;28;20046;-69
2021/12/30 01:32:42;;;;;;;6.53;3.80;;;;;;;-3.99;93.41;100157.19;5013462;28;19928;-69
2021/12/30 01:35:12;;;;;;;4.28;2.80;;;;;;;-3.96;92.75;100158.88;5012905;28;20050;-69
2021/12/30 01:37:40;;;;;;;3.05;2.20;;;;;;;-4.01;93.29;100155.50;5013370;28;20092;-70
2021/12/30 01:40:12;;;;;;;3.72;2.47;;;;;;;-3.96;93.55;100163.94;5013373;28;20068;-70
2021/12/30 01:42:40;;;;;;;3.90;2.63;;;;;;;-3.96;92.97;100162.28;5013059;28;20133;-70
2021/12/30 01:45:07;;;;;;;;;;;;;;;-3.95;93.35;100156.31;5013426;28;20057;-70
2021/12/30 01:47:34;;;;;;;1.73;1.63;;;;;;;-3.98;93.46;100150.44;5013014;28;19928;-69
2021/12/30 01:50:01;;;;;;;4.05;3.30;;;;;;;-4.00;93.33;100154.66;5012912;28;20484;-69
2021/12/30 01:52:28;;;;;;;5.47;3.95;;;;;;;-4.01;93.51;100145.34;5013272;28;20046;-70
2021/12/30 01:54:56;;;;;;;3.58;3.00;;;;;;;-4.01;93.71;100145.34;5013003;28;20053;-70
2021/12/30 01:57:23;;;;;;;4.35;2.58;;;;;;;-4.04;94.27;100152.97;5012939;28;20053;-69
2021/12/30 01:59:51;;;;;;;3.55;2.15;;;;;;;-4.04;94.51;100153.81;5012579;28;20477;-70
2021/12/30 02:02:18;;;;;;;2.72;2.25;;;;;;;-4.02;94.27;100153.81;5013188;28;20050;-70
2021/12/30 02:04:45;;;;;;;3.03;2.50;;;;;;;-4.01;94.58;100142.78;5012765;28;20412;-70
2021/12/30 02:07:13;;;;;;;2.92;2.28;;;;;;;-4.01;94.45;100135.16;5012785;28;20050;-70
2021/12/30 02:09:40;;;;;;;5.43;3.60;;;;;;;-4.00;94.51;100140.25;5012633;28;20052;-70
2021/12/30 02:12:10;;;;;;;7.20;3.42;;;;;;;-3.96;94.70;100136.00;5012688;28;20050;-70
2021/12/30 02:14:37;;;;;;;4.55;3.20;;;;;;;-3.94;94.95;100136.84;5012875;28;20054;-68
2021/12/30 02:17:06;;;;;;;6.65;4.18;;;;;;;-3.92;94.82;100141.91;5012565;28;20507;-70
2021/12/30 02:19:34;;;;;;;4.07;3.03;;;;;;;-3.93;94.90;100138.53;5012576;28;20054;-70
2021/12/30 02:22:03;;;;;;;4.32;2.80;;;;;;;-3.92;95.17;100147.00;5012600;28;20057;-70
2021/12/30 02:24:30;;;;;;;5.63;2.72;;;;;;;-3.90;95.03;100151.22;5012707;28;20041;-67
2021/12/30 02:26:57;;;;;;;4.47;3.28;;;;;;;-3.92;95.32;100154.63;5012795;28;20042;-68
2021/12/30 02:29:24;;;;;;;3.35;2.58;;;;;;;-3.91;95.74;100143.59;5012740;28;20054;-65
2021/12/30 02:31:51;;;;;;;4.75;3.22;;;;;;;-3.95;95.82;100130.91;5012619;28;20060;-69
2021/12/30 02:34:19;;;;;;;4.10;2.35;;;;;;;-3.96;95.46;100133.44;5012676;28;20054;-69
2021/12/30 02:36:48;;;;;;;4.35;2.95;;;;;;;-3.99;95.38;100141.09;5012321;28;20092;-68
2021/12/30 02:39:19;;;;;;;7.97;4.25;;;;;;;-4.03;95.56;100145.38;5012253;28;20061;-69
2021/12/30 02:41:46;;;;;;;6.05;3.53;;;;;;;-4.03;95.62;100145.38;5012247;28;20056;-69
2021/12/30 02:44:13;;;;;;;6.05;4.05;;;;;;;-4.03;95.43;100144.53;5012292;28;20046;-69
2021/12/30 02:46:40;;;;;;;3.65;2.75;;;;;;;-4.05;95.54;100148.75;5012286;28;20060;-68
2021/12/30 02:49:08;;;;;;;5.00;3.22;;;;;;;-4.07;95.16;100143.69;5012278;28;20045;-68
2021/12/30 02:51:35;;;;;;;4.53;2.38;;;;;;;-4.09;95.36;100145.38;5012450;28;20046;-69
2021/12/30 02:54:03;;;;;;;;;;;;;;;-4.12;95.26;100145.41;5012438;28;20141;-70
2021/12/30 02:56:31;;;;;;;4.45;2.95;;;;;;;-4.13;95.81;100145.41;5012456;28;19921;-69
2021/12/30 02:58:59;;;;;;;5.15;3.45;;;;;;;-4.15;95.51;100147.97;5012300;28;20137;-68
2021/12/30 03:01:28;;;;;;;5.50;3.30;;;;;;;-4.15;95.06;100140.34;5012395;28;20050;-67
2021/12/30 03:03:55;;;;;;;2.47;2.08;;;;;;;-4.15;95.53;100137.78;5011937;28;20477;-68
2021/12/30 03:06:24;;;;;;;4.30;2.72;;;;;;;-4.16;95.51;100139.50;5011855;28;20060;-68
2021/12/30 03:08:52;;;;;;;3.08;2.38;;;;;;;-4.16;95.68;100143.75;5012105;28;20049;-69
2021/12/30 03:11:21;;;;;;;5.60;3.75;;;;;;;-4.14;95.79;100148.78;5012071;28;20061;-69
2021/12/30 03:13:49;;;;;;;5.25;3.65;;;;;;;-4.16;95.52;100149.66;5016137;28;20057;-69
2021/12/30 03:16:19;;;;;;;7.13;4.50;;;;;;;-4.18;95.43;100151.34;5015778;28;20046;-69
2021/12/30 03:18:49;;;;;;;4.43;3.60;;;;;;;-4.21;96.20;100145.47;5015831;28;20507;-69
2021/12/30 03:21:18;;;;;;;2.78;2.17;;;;;;;-4.19;95.42;100143.72;5015799;28;20467;-68
2021/12/30 03:23:45;;;;;;;3.72;2.50;;;;;;;-4.18;95.53;100147.97;5015739;28;20479;-69
2021/12/30 03:26:13;;;;;;;;;;;;;;;-4.22;95.58;100164.91;5015920;28;20049;-67
2021/12/30 03:28:40;;;;;;;4.88;3.65;;;;;;;-4.22;95.63;100167.44;5015651;28;19921;-69
2021/12/30 03:31:09;;;;;;;4.28;2.65;;;;;;;-4.22;95.56;100166.63;5015599;28;20050;-69
2021/12/30 03:33:37;;;;;;;4.13;2.78;;;;;;;-4.24;95.83;100165.78;5015515;28;20499;-68
2021/12/30 03:36:04;;;;;;;;;;;;;;;-4.23;95.96;100157.31;5028178;23;20061;-73
2021/12/30 03:38:34;;;;;;;6.68;4.22;;;;;;;-4.26;95.66;100147.16;5015692;28;19921;-73
2021/12/30 03:41:07;;;;;;;1.85;1.67;;;;;;;-4.23;95.57;100148.00;5015583;28;20046;-73
2021/12/30 03:43:35;;;;;;;7.40;4.05;;;;;;;-4.25;96.04;100138.69;5015187;28;20049;-73
2021/12/30 03:46:04;;;;;;;4.00;2.80;;;;;;;-4.24;95.98;100126.00;5015398;28;20069;-73
2021/12/30 03:48:39;;;;;;;2.78;2.35;;;;;;;-4.23;96.10;100122.59;5015398;28;20050;-73
2021/12/30 03:51:09;;;;;;;5.20;2.88;;;;;;;-4.21;96.29;100120.88;5015281;28;20515;-73
2021/12/30 03:53:41;;;;;;;4.68;2.47;;;;;;;-4.18;96.42;100114.94;5014963;28;20049;-73
2021/12/30 03:56:09;;;;;;;5.32;3.55;;;;;;;-4.16;96.11;100121.72;5015136;28;20041;-73
2021/12/30 03:58:36;;;;;;;3.17;2.50;;;;;;;-4.12;96.29;100107.28;5015385;28;20046;-73
2021/12/30 04:01:04;;;;;;;4.07;3.38;;;;;;;-4.10;96.81;100107.28;5015349;28;20416;-73
2021/12/30 04:03:33;;;;;;;5.10;3.35;;;;;;;-4.10;96.69;100090.34;5015063;28;20149;-74
2021/12/30 04:06:00;;;;;;;5.65;3.67;;;;;;;-4.09;96.46;100092.00;5015183;28;20050;-73
2021/12/30 04:08:26;;;;;;;6.47;4.13;;;;;;;-4.05;96.66;100091.16;5014991;28;20041;-73
2021/12/30 04:10:53;;;;;;;4.38;2.47;;;;;;;-4.03;96.74;100086.09;5015029;28;20042;-73
2021/12/30 04:13:20;;;;;;;5.78;2.65;;;;;;;-4.03;96.49;100081.00;5014888;28;20057;-75
2021/12/30 04:15:47;;;;;;;2.80;2.08;;;;;;;-4.01;96.74;100071.63;5014890;28;20065;-74
2021/12/30 04:18:14;;;;;;;5.97;2.83;;;;;;;-4.02;96.90;100063.19;5014873;28;20057;-74
2021/12/30 04:20:43;;;;;;;2.80;2.25;;;;;;;-4.01;96.54;100064.88;5014671;28;20057;-74
2021/12/30 04:23:10;;;;;;;3.85;2.55;;;;;;;-3.99;96.58;100068.25;5014110;28;20054;-73
2021/12/30 04:25:37;;;;;;;3.88;3.00;;;;;;;-3.98;96.52;100054.69;5014605;28;20046;-74
2021/12/30 04:28:04;;;;;;;3.63;2.78;;;;;;;-3.95;96.52;100054.66;5014819;28;20053;-74
2021/12/30 04:30:30;;;;;;;;;;;;;;;-3.92;96.59;100052.97;5015081;28;20050;-74
2021/12/30 04:32:57;;;;;;;3.72;2.80;;;;;;;-3.92;97.01;100041.09;5014733;28;19921;-74
2021/12/30 04:35:26;;;;;;;3.13;2.30;;;;;;;-3.88;96.61;100044.44;5028206;23;20058;-69
2021/12/30 04:37:54;;;;;;;7.15;3.22;;;;;;;-3.87;96.91;100036.81;5014427;28;20053;-64
2021/12/30 04:40:21;;;;;;;8.15;4.05;;;;;;;-3.87;97.11;100044.44;5014299;28;20042;-69
2021/12/30 04:42:48;;;;;;;;;;;;;;;-3.81;97.10;100036.75;5014944;28;20046;-68
2021/12/30 04:45:16;;;;;;;5.72;4.13;;;;;;;-3.82;96.88;100035.09;5014254;28;19929;-68
2021/12/30 04:47:43;;;;;;;6.05;3.63;;;;;;;-3.78;96.79;100038.44;5014128;28;20046;-68
2021/12/30 04:50:13;;;;;;;5.60;2.53;;;;;;;-3.76;96.65;100040.09;5014163;28;20054;-63
2021/12/30 04:52:40;;;;;;;5.05;3.30;;;;;;;-3.73;96.73;100040.09;5014453;28;20065;-63
2021/12/30 04:55:10;;;;;;;5.30;2.60;;;;;;;-3.74;97.07;100032.47;5014277;28;20050;-64
2021/12/30 04:57:36;;;;;;;4.68;3.05;;;;;;;-3.69;96.46;100027.38;5014147;28;20050;-67
2021/12/30 05:00:06;;;;;;;5.35;2.65;;;;;;;-3.65;96.62;100018.84;5014216;28;20064;-67
2021/12/30 05:02:48;;;;;;;2.33;2.13;;;;;;;-3.65;96.61;100018.84;5014154;28;20128;-68
2021/12/30 05:05:15;;;;;;;2.88;2.15;;;;;;;-3.63;96.66;100009.50;5013997;28;20045;-67
2021/12/30 05:07:42;;;;;;;2.50;2.05;;;;;;;-3.61;96.68;100008.63;5013898;28;20046;-68
2021/12/30 05:10:11;;;;;;;5.05;3.75;;;;;;;-3.58;97.22;100013.69;5013850;28;20045;-67
2021/12/30 05:12:37;;;;;;;4.25;2.78;;;;;;;-3.55;96.73;100008.56;5014022;28;20046;-69
2021/12/30 05:15:05;;;;;;;3.80;3.00;;;;;;;-3.50;96.81;100013.63;5013701;28;20057;-65
2021/12/30 05:17:34;;;;;;;5.03;3.13;;;;;;;-3.49;96.50;100010.22;5013989;28;20054;-68
2021/12/30 05:20:01;;;;;;;6.72;4.18;;;;;;;-3.49;96.92;100010.22;5013485;28;20046;-67
2021/12/30 05:22:28;;;;;;;7.95;4.13;;;;;;;-3.46;96.79;100005.13;5013497;28;20042;-68
2021/12/30 05:24:55;;;;;;;7.55;5.20;;;;;;;-3.44;96.26;99998.31;5013428;28;20437;-68
2021/12/30 05:27:23;;;;;;;3.65;2.90;;;;;;;-3.41;96.47;99993.19;5013432;28;20411;-69
2021/12/30 05:29:50;;;;;;;4.65;2.92;;;;;;;-3.41;97.08;99992.34;5013401;28;20496;-68
2021/12/30 05:32:17;;;;;;;3.90;2.80;;;;;;;-3.41;96.74;99988.09;5013276;28;20499;-69
2021/12/30 05:34:44;;;;;;;3.25;2.40;;;;;;;-3.40;96.70;99983.84;5024950;23;20488;-72
2021/12/30 05:37:10;;;;;;;5.50;3.63;;;;;;;-3.39;96.79;99985.53;5013387;28;20408;-72
2021/12/30 05:39:41;;;;;;;3.63;3.00;;;;;;;-3.37;97.21;99976.19;5013341;28;20050;-72
2021/12/30 05:42:08;;;;;;;5.95;3.38;;;;;;;-3.36;97.08;99971.09;5013286;28;20073;-73
2021/12/30 05:44:37;;;;;;;5.47;3.80;;;;;;;-3.36;96.77;99960.91;5013506;28;20046;-73
2021/12/30 05:47:04;;;;;;;3.97;3.03;;;;;;;-3.35;97.11;99961.75;5013189;28;20054;-73
2021/12/30 05:49:31;;;;;;;4.00;3.03;;;;;;;-3.32;97.09;99964.25;5013200;28;20050;-73
2021/12/30 05:51:58;;;;;;;5.85;3.40;;;;;;;-3.32;97.02;99960.00;5013030;28;20042;-72
2021/12/30 05:54:25;;;;;;;5.03;3.13;;;;;;;-3.30;97.40;99950.66;5012834;28;20046;-72
2021/12/30 05:56:52;;;;;;;3.75;2.55;;;;;;;-3.29;97.26;99946.41;5012839;28;20053;-73
2021/12/30 05:59:19;;;;;;;3.10;2.25;;;;;;;-3.30;97.47;99943.03;5012942;28;20042;-73
2021/12/30 06:01:47;;;;;;;4.50;3.22;;;;;;;-3.29;97.34;99944.72;5012879;28;20456;-73
2021/12/30 06:04:14;;;;;;;4.90;2.42;;;;;;;-3.29;97.79;99951.50;5012908;28;20042;-73
2021/12/30 06:06:41;;;;;;;3.70;2.63;;;;;;;-3.26;97.57;99950.63;5012798;28;20056;-73
2021/12/30 06:09:08;;;;;;;3.08;2.78;;;;;;;-3.28;98.07;99953.19;5012733;28;20413;-75
2021/12/30 06:11:35;;;;;;;4.68;2.72;;;;;;;-3.29;97.93;99946.41;5012847;28;20056;-74
2021/12/30 06:14:02;;;;;;;3.05;2.25;;;;;;;-3.26;97.78;99946.41;5013098;28;20056;-73
2021/12/30 06:16:28;;;;;;;6.75;3.47;;;;;;;-3.25;97.92;99937.91;5013102;28;20060;-74
2021/12/30 06:18:59;;;;;;;6.68;3.95;;;;;;;-3.21;98.16;99938.69;5012641;28;20049;-75
2021/12/30 06:21:26;;;;;;;6.07;4.10;;;;;;;-3.22;98.27;99934.47;5012578;28;20049;-74
2021/12/30 06:23:53;;;;;;;3.92;3.25;;;;;;;-3.19;98.46;99939.53;5012361;28;20404;-73
2021/12/30 06:26:20;;;;;;;5.43;3.67;;;;;;;-3.15;98.18;99939.47;5012477;28;20065;-73
2021/12/30 06:28:47;;;;;;;8.15;3.30;;;;;;;-3.14;98.47;99938.59;5012353;28;20480;-73
2021/12/30 06:31:14;;;;;;;3.97;2.90;;;;;;;-3.12;98.49;99929.25;5012523;28;20499;-73
2021/12/30 06:33:41;;;;;;;3.78;3.05;;;;;;;-3.11;98.50;99930.94;5012505;28;20054;-73
2021/12/30 06:36:10;;;;;;;;;;;;;;;-3.09;98.38;99931.75;5025368;23;20049;-70
2021/12/30 06:38:37;;;;;;;8.15;4.57;;;;;;;-3.08;98.75;99918.19;5012388;28;20360;-70
2021/12/30 06:41:05;;;;;;;3.45;2.72;;;;;;;-3.04;98.58;99924.06;5012368;28;20414;-70
2021/12/30 06:43:32;;;;;;;3.45;2.80;;;;;;;-2.99;98.51;99918.94;5012192;28;20401;-69
2021/12/30 06:46:01;;;;;;;3.83;2.97;;;;;;;-2.97;98.69;99917.22;5013395;28;20045;-70
2021/12/30 06:48:28;;;;;;;7.50;3.70;;;;;;;-2.98;98.69;99916.38;5016756;28;20052;-68
2021/12/30 06:50:56;;;;;;;5.97;3.47;;;;;;;-2.97;98.95;99912.94;5016269;28;20049;-68
2021/12/30 06:53:25;;;;;;;4.90;3.28;;;;;;;-2.93;99.00;99913.75;5016660;28;20233;-68
2021/12/30 06:55:53;;;;;;;4.90;3.58;;;;;;;-2.90;99.15;99912.00;5016454;28;20069;-68
2021/12/30 06:58:21;;;;;;;3.47;2.45;;;;;;;-2.89;99.64;99910.31;5016312;28;20057;-68
2021/12/30 07:00:49;;;;;;;4.88;3.63;;;;;;;-2.90;99.31;99903.53;5016130;28;20057;-67
2021/12/30 07:03:16;;;;;;;4.32;3.00;;;;;;;-2.87;99.89;99900.94;5016037;28;20396;-63
2021/12/30 07:05:43;;;;;;;6.30;4.18;;;;;;;-2.87;99.38;99906.88;5016289;28;20370;-68
2021/12/30 07:08:10;;;;;;;4.82;3.67;;;;;;;-2.85;99.67;99904.31;5016400;28;20049;-68
2021/12/30 07:10:41;;;;;;;6.00;3.15;;;;;;;-2.83;99.43;99905.13;5016127;28;20053;-68
2021/12/30 07:13:08;;;;;;;4.00;3.13;;;;;;;-2.81;99.38;99908.50;5016158;28;20053;-68
2021/12/30 07:15:35;;;;;;;6.22;4.07;;;;;;;-2.83;99.68;99902.56;5016106;28;20056;-68
2021/12/30 07:18:02;;;;;;;7.75;4.43;;;;;;;-2.81;99.88;99897.47;5015865;28;20076;-68
2021/12/30 07:20:29;;;;;;;3.72;3.13;;;;;;;-2.78;99.39;99895.72;5016098;28;20050;-69
2021/12/30 07:22:55;;;;;;;6.15;3.55;;;;;;;-2.78;99.59;99889.78;5015888;28;20049;-68
2021/12/30 07:25:22;;;;;;;6.35;4.30;;;;;;;-2.77;99.73;99889.78;5015671;28;20057;-69
2021/12/30 07:27:53;;;;;;;5.38;3.50;;;;;;;-2.74;99.95;99878.69;5015670;28;20046;-68
2021/12/30 07:30:22;;;;;;;6.85;4.53;;;;;;;-2.76;99.84;99873.63;5015617;28;20092;-68
2021/12/30 07:32:49;;;;;;;8.90;5.22;;;;;;;-2.74;99.93;99865.97;5015913;28;20408;-68
2021/12/30 07:35:17;;;;;;;3.28;2.72;;;;;;;-2.73;100.00;99872.72;5016224;28;20416;-69
2021/12/30 07:37:45;;;;;;;7.88;4.18;;;;;;;-2.73;100.00;99863.38;5015548;28;20382;-68
2021/12/30 07:40:13;;;;;;;5.10;3.35;;;;;;;-2.70;99.85;99860.81;5015629;28;20042;-69
2021/12/30 07:42:40;;;;;;;7.65;4.47;;;;;;;-2.66;100.00;99852.25;5015509;28;20050;-68
2021/12/30 07:45:10;;;;;;;4.57;3.40;;;;;;;-2.61;99.96;99864.09;5015428;28;20046;-68
2021/12/30 07:47:37;;;;;;;6.85;4.55;;;;;;;-2.64;99.84;99853.06;5015574;28;20071;-69
2021/12/30 07:50:06;;;;;;;6.75;3.63;;;;;;;-2.60;99.79;99851.31;5015368;28;20522;-69
2021/12/30 07:52:34;;;;;;;5.38;3.67;;;;;;;-2.60;99.65;99856.41;5015253;28;20050;-69
2021/12/30 07:55:01;;;;;;;6.93;4.63;;;;;;;-2.59;99.63;99853.00;5015108;28;20046;-68
2021/12/30 07:57:29;;;;;;;5.18;3.35;;;;;;;-2.54;99.61;99852.91;5014484;28;20488;-68
2021/12/30 07:59:57;;;;;;;3.83;2.83;;;;;;;-2.57;99.99;99842.78;5015533;28;20060;-69
2021/12/30 08:02:25;;;;;;;3.72;3.28;;;;;;;-2.55;99.98;99844.44;5015311;28;20042;-68
2021/12/30 08:04:52;;;;;;;4.28;3.28;;;;;;;-2.55;99.72;99834.25;5014932;28;20046;-69
2021/12/30 08:07:22;;;;;;;5.57;3.53;;;;;;;-2.53;100.00;99827.44;5014969;28;20480;-67
2021/12/30 08:09:49;;;;;;;5.00;3.75;;;;;;;-2.53;99.98;99831.69;5015120;28;20096;-68
2021/12/30 08:12:16;;;;;;;;;;;;;;;-2.57;100.00;99828.31;5015443;28;20061;-69
2021/12/30 08:14:44;;;;;;;8.77;5.25;;;;;;;-2.54;100.00;99819.78;5015318;28;19925;-67
2021/12/30 08:17:11;;;;;;;8.57;5.78;;;;;;;-2.52;100.00;99829.09;5015233;28;20061;-68
2021/12/30 08:19:39;;;;;;;11.73;6.68;;;;;;;-2.51;100.00;99820.59;5014632;28;20088;-68
2021/12/30 08:22:06;;;;;;;4.90;3.03;;;;;;;-2.48;99.84;99819.72;5014884;28;20076;-67
2021/12/30 08:24:33;;;;;;;6.85;4.18;;;;;;;-2.47;99.75;99816.28;5014578;28;20481;-68
2021/12/30 08:27:00;;;;;;;9.10;5.82;;;;;;;-2.44;99.85;99827.28;5014800;28;20507;-69
2021/12/30 08:29:27;;;;;;;10.40;4.60;;;;;;;-2.44;99.70;99816.22;5014604;28;20485;-68
2021/12/30 08:31:54;;;;;;;10.40;6.15;;;;;;;-2.45;99.87;99814.56;5014754;28;20057;-67
2021/12/30 08:36:50;;;;;;;10.05;5.88;;;;;;;-2.41;99.27;99804.31;5013166;28;19921;-73
2021/12/30 08:39:17;;;;;;;9.18;5.88;;;;;;;-2.43;99.35;99808.56;5014482;28;20046;-75
2021/12/30 08:41:44;;;;;;;7.40;4.78;;;;;;;-2.38;99.61;99807.66;5014481;28;20056;-73
2021/12/30 08:44:11;;;;;;;10.32;5.95;;;;;;;-2.39;99.46;99801.72;5014503;28;20064;-73
2021/12/30 08:46:38;;;;;;;8.45;5.43;;;;;;;-2.41;99.52;99803.47;4994611;28;20057;-73
2021/12/30 08:49:05;;;;;;;5.60;3.75;;;;;;;-2.41;99.35;99798.38;4994773;28;20050;-73
2021/12/30 08:51:32;;;;;;;12.88;5.95;;;;;;;-2.39;99.10;99795.78;4994646;28;20046;-73
2021/12/30 08:54:00;;;;;;;6.30;4.38;;;;;;;-2.39;99.16;99793.22;4994822;28;20050;-73
2021/12/30 08:56:27;;;;;;;9.32;5.68;;;;;;;-2.41;99.05;99789.00;4994415;28;20057;-73
2021/12/30 08:58:54;;;;;;;7.60;4.80;;;;;;;-2.42;99.29;99797.50;4994537;28;20050;-73
2021/12/30 09:01:21;;;;;;;6.80;4.80;;;;;;;-2.41;98.96;99789.00;4994349;28;20051;-74
2021/12/30 09:03:48;;;;;;;7.05;4.80;;;;;;;-2.41;99.04;99789.00;4994720;28;20050;-73
2021/12/30 09:06:15;;;;;;;6.03;4.00;;;;;;;-2.39;99.06;99793.22;4994505;28;20133;-73
2021/12/30 09:08:41;;;;;;;6.97;4.03;;;;;;;-2.38;98.92;99792.38;4993914;28;20404;-73
2021/12/30 09:11:10;;;;;;;6.85;4.50;;;;;;;-2.41;98.90;99794.13;4993417;28;20528;-74
2021/12/30 09:13:37;;;;;;;8.18;5.13;;;;;;;-2.42;98.70;99786.47;4994248;28;20051;-73
2021/12/30 09:16:04;;;;;;;6.75;4.28;;;;;;;-2.40;98.91;99792.41;4994166;28;20057;-73
2021/12/30 09:18:31;;;;;;;8.43;5.47;;;;;;;-2.43;99.10;99784.81;4993984;28;20046;-73
2021/12/30 09:20:58;;;;;;;9.05;5.55;;;;;;;-2.43;99.20;99782.25;4993905;28;20051;-73
2021/12/30 09:23:25;;;;;;;5.35;3.53;;;;;;;-2.42;98.96;99783.94;4993894;28;20061;-73
2021/12/30 09:25:55;;;;;;;5.57;3.90;;;;;;;-2.43;98.96;99790.75;4993852;28;20049;-73
2021/12/30 09:28:24;;;;;;;5.30;3.35;;;;;;;-2.42;98.67;99783.94;4994041;28;20054;-73
2021/12/30 09:30:51;;;;;;;8.55;4.95;;;;;;;-2.44;98.90;99781.44;4993923;28;20612;-73
2021/12/30 09:33:18;;;;;;;8.27;5.53;;;;;;;-2.42;98.82;99781.38;4994092;28;20404;-73
2021/12/30 09:35:47;;;;;;;7.07;5.05;;;;;;;-2.41;98.46;99783.91;5016795;22;20046;-69
2021/12/30 09:38:14;;;;;;;12.85;6.75;;;;;;;-2.41;98.61;99783.09;5013326;28;20046;-69
2021/12/30 09:40:41;;;;;;;6.93;4.32;;;;;;;-2.42;98.83;99779.69;5013206;28;20060;-69
2021/12/30 09:43:09;;;;;;;9.10;5.63;;;;;;;-2.41;98.56;99772.91;5013207;28;20058;-69
2021/12/30 09:45:40;;;;;;;4.70;3.22;;;;;;;-2.38;98.36;99770.28;5013343;28;20049;-69
2021/12/30 09:48:09;;;;;;;6.50;4.40;;;;;;;-2.43;98.51;99767.81;5012976;28;20049;-70
2021/12/30 09:50:40;;;;;;;6.63;4.38;;;;;;;-2.41;98.70;99761.00;5013157;28;20057;-69
2021/12/30 09:53:07;;;;;;;4.22;3.67;;;;;;;-2.43;98.54;99759.34;5013204;28;20049;-70
2021/12/30 09:55:35;;;;;;;9.52;4.90;;;;;;;-2.44;98.83;99757.63;5013124;28;20045;-70
2021/12/30 09:58:02;;;;;;;7.43;3.95;;;;;;;-2.43;98.98;99757.63;5013005;28;20488;-71
2021/12/30 10:00:30;;;;;;;6.30;4.15;;;;;;;-2.43;98.85;99757.63;5012613;28;20396;-68
2021/12/30 10:02:59;;;;;;;4.28;3.35;;;;;;;-2.44;98.75;99765.28;5012630;28;20381;-66
2021/12/30 10:05:30;;;;;;;7.50;4.07;;;;;;;-2.46;99.00;99757.69;5012568;28;20417;-69
2021/12/30 10:08:13;;;;;;;5.88;3.92;;;;;;;-2.46;99.15;99765.31;5012816;28;20156;-68
2021/12/30 10:10:43;;;;;;;7.72;5.07;;;;;;;-2.46;99.19;99761.94;5011677;28;20080;-69
2021/12/30 10:13:27;;;;;;;7.50;4.90;;;;;;;-2.48;99.13;99761.97;5012834;28;20504;-68
2021/12/30 10:15:56;;;;;;;5.78;4.38;;;;;;;-2.47;99.19;99766.19;5012846;28;20228;-68
2021/12/30 10:18:26;;;;;;;7.32;4.68;;;;;;;-2.48;99.48;99766.22;5012835;28;20129;-65
2021/12/30 10:20:53;;;;;;;6.35;3.90;;;;;;;-2.50;99.47;99753.50;5012543;28;20069;-66
2021/12/30 10:23:24;;;;;;;5.30;3.42;;;;;;;-2.49;99.40;99746.69;5012653;28;20050;-68
2021/12/30 10:25:53;;;;;;;5.40;3.97;;;;;;;-2.49;99.50;99746.69;5012583;28;20045;-67
2021/12/30 10:28:27;;;;;;;7.32;4.80;;;;;;;-2.52;99.33;99750.13;5012380;28;20404;-68
2021/12/30 10:31:00;;;;;;;4.75;3.25;;;;;;;-2.51;99.54;99745.91;5012658;28;20045;-66
2021/12/30 10:33:30;;;;;;;9.27;5.95;;;;;;;-2.52;99.67;99755.22;5012594;28;20477;-69
2021/12/30 10:35:58;;;;;;;5.35;3.35;;;;;;;-2.47;99.29;99750.91;5012804;28;20065;-70
2021/12/30 10:38:30;;;;;;;6.97;5.13;;;;;;;-2.50;99.82;99756.03;5012318;28;20480;-69
2021/12/30 10:41:03;;;;;;;3.53;2.97;;;;;;;-2.51;100.00;99748.44;5012384;28;20489;-68
2021/12/30 10:43:35;;;;;;;5.15;3.53;;;;;;;-2.57;100.00;99749.38;5012359;28;20538;-68
2021/12/30 10:46:11;;;;;;;6.72;4.68;;;;;;;-2.59;100.00;99750.25;5012072;28;20068;-68
2021/12/30 10:49:02;;;;;;;6.97;4.32;;;;;;;-2.62;100.00;99743.56;5012146;28;20050;-68
2021/12/30 10:51:35;;;;;;;7.72;5.32;;;;;;;-2.61;100.00;99747.75;5012597;28;20149;-68
2021/12/30 10:54:14;;;;;;;4.07;3.42;;;;;;;-2.61;100.00;99745.22;5012248;28;20057;-69
2021/12/30 10:56:42;;;;;;;5.25;3.85;;;;;;;-2.60;100.00;99748.59;5012093;28;20061;-67
2021/12/30 10:59:16;;;;;;;6.57;4.05;;;;;;;-2.60;100.00;99735.88;5012395;28;20058;-67
2021/12/30 11:01:45;;;;;;;5.88;4.07;;;;;;;-2.61;100.00;99737.56;5012398;28;20061;-68
2021/12/30 11:04:14;;;;;;;5.78;3.13;;;;;;;-2.63;100.00;99734.22;5012207;28;20046;-69
2021/12/30 11:06:42;;;;;;;6.85;4.57;;;;;;;-2.63;100.00;99729.13;5011939;28;20476;-68
2021/12/30 11:09:16;;;;;;;7.60;3.85;;;;;;;-2.64;100.00;99728.28;5012005;28;20057;-69
2021/12/30 11:11:46;;;;;;;7.78;4.80;;;;;;;-2.64;100.00;99730.00;5012220;28;20053;-69
2021/12/30 11:14:16;;;;;;;6.50;3.90;;;;;;;-2.66;100.00;99724.91;5012062;28;20370;-70
2021/12/30 11:16:59;;;;;;;9.48;4.85;;;;;;;-2.61;100.00;99721.47;5011921;28;20049;-69
2021/12/30 11:19:29;;;;;;;7.80;5.35;;;;;;;-2.65;100.00;99710.47;5012204;28;20491;-67
2021/12/30 11:21:57;;;;;;;10.77;4.78;;;;;;;-2.66;100.00;99711.34;5011986;28;20050;-69
2021/12/30 11:24:25;;;;;;;4.82;3.13;;;;;;;-2.68;100.00;99702.91;5012020;28;20060;-69
2021/12/30 11:26:52;;;;;;;8.98;5.70;;;;;;;-2.66;100.00;99708.81;5012179;28;20049;-69
2021/12/30 11:29:19;;;;;;;4.78;3.28;;;;;;;-2.65;100.00;99715.56;5012045;28;20049;-68
2021/12/30 11:31:46;;;;;;;4.35;2.92;;;;;;;-2.66;100.00;99703.72;5011983;28;20496;-69
2021/12/30 11:34:13;;;;;;;6.25;3.78;;;;;;;-2.68;100.00;99706.28;5014586;28;20054;-69
2021/12/30 11:36:42;;;;;;;5.63;4.15;;;;;;;-2.68;100.00;99707.97;5015816;28;20050;-70
2021/12/30 11:39:14;;;;;;;3.45;3.13;;;;;;;-2.69;100.00;99701.22;5015547;28;20053;-69